Main page
METAR-TAF:

METAR-TAF

Airports :

Sundsvall–Timrå Airport

Sundsvall-Härnösand, Sweden

latitude: 62-32N, longitude: 017-27E, elevation: 4 m

Current weather observation

The report was made 29 minutes ago, at 17:20 UTC
Wind 8 kt from the Southeast
Temperature 20°C
Humidity 78%
Pressure 1011 hPa
Visibility 10 km or more
Few clouds at a height of 2000 ft

METAR: ESNN 231720Z 14008KT 9999 FEW020 20/16 Q1011

Time: 19:49 (17:49 UTC)

Forecast

The report was made 3 hours and 19 minutes ago, at 14:30 UTC
Forecast valid from 23 at 15 UTC to 23 at 24 UTC
Wind 8 kt from the South/Southeast
Visibility 10 km or more
Few clouds at a height of 1500 ft
Probability 40%
from 23 at 22 UTC to 23 at 24 UTC
Visibility: 3000 m
Broken clouds at a height of 700 ft
Broken clouds at a height of 3000 ft, Cumulonimbus.
rain showers,

TAF: ESNN 231430Z 2315/2324 16008KT 9999 FEW015 PROB40 2322/2324 3000 SHRA BKN007 BKN030CB

Weather observations and forecasts of more than 4000 airports (METAR and TAF reports).

The available stations are represented by yellow and red dots on the map.

Hover mouse over dot to see the name of the station.

Then click to see weather observations and forecasts.

To change the map : click on the green buttons with a black cross to zoom in, on the green button with a dash to zoom out, or on the green arrows for adjacent maps.


METAR-TAF: